createdAt,value
2019-04-14T00:00:51.454Z,-0.90
2019-04-14T00:03:34.748Z,-1.00
2019-04-14T00:06:05.283Z,-1.10
2019-04-14T00:08:34.839Z,-1.10
2019-04-14T00:11:04.016Z,-1.20
2019-04-14T00:13:32.822Z,-1.30
2019-04-14T00:16:01.410Z,-1.30
2019-04-14T00:18:29.994Z,-1.40
2019-04-14T00:20:59.767Z,-1.40
2019-04-14T00:23:28.546Z,-1.50
2019-04-14T00:26:16.961Z,-1.50
2019-04-14T00:28:46.884Z,-1.50
2019-04-14T00:31:15.668Z,-1.50
2019-04-14T00:33:45.305Z,-1.60
2019-04-14T00:36:17.509Z,-1.60
2019-04-14T00:38:47.914Z,-1.60
2019-04-14T00:41:32.985Z,-1.60
2019-04-14T00:44:01.878Z,-1.60
2019-04-14T00:46:38.797Z,-1.70
2019-04-14T00:49:07.536Z,-1.70
2019-04-14T00:51:38.232Z,-1.70
2019-04-14T00:54:06.693Z,-1.70
2019-04-14T00:56:35.225Z,-1.60
2019-04-14T00:59:04.932Z,-1.70
2019-04-14T01:01:33.642Z,-1.70
2019-04-14T01:04:03.390Z,-1.70
2019-04-14T01:06:32.074Z,-1.70
2019-04-14T01:09:00.674Z,-1.60
2019-04-14T01:11:29.236Z,-1.70
2019-04-14T01:13:57.838Z,-1.70
2019-04-14T01:16:27.041Z,-1.80
2019-04-14T01:18:56.587Z,-1.80
2019-04-14T01:21:26.265Z,-1.80
2019-04-14T01:23:54.937Z,-1.80
2019-04-14T01:26:24.572Z,-1.90
2019-04-14T01:28:53.306Z,-2.00
2019-04-14T01:31:25.109Z,-2.10
2019-04-14T01:33:53.270Z,-2.20
2019-04-14T01:36:22.074Z,-2.20
2019-04-14T01:38:51.745Z,-2.20
2019-04-14T01:41:20.306Z,-2.20
2019-04-14T01:43:49.643Z,-2.20
2019-04-14T01:46:23.140Z,-2.20
2019-04-14T01:48:49.608Z,-2.20
2019-04-14T01:51:20.278Z,-2.20
2019-04-14T01:54:06.899Z,-2.30
2019-04-14T01:56:37.114Z,-2.30
2019-04-14T01:59:08.624Z,-2.30
2019-04-14T02:01:42.060Z,-2.30
2019-04-14T02:04:11.676Z,-2.30
2019-04-14T02:06:40.374Z,-2.10
2019-04-14T02:09:12.083Z,-2.00
2019-04-14T02:11:40.771Z,-2.00
2019-04-14T02:14:10.393Z,-2.00
2019-04-14T02:16:44.434Z,-1.90
2019-04-14T02:19:09.449Z,-1.90
2019-04-14T02:21:38.857Z,-1.90
2019-04-14T02:24:07.593Z,-1.90
2019-04-14T02:26:37.299Z,-1.90
2019-04-14T02:29:05.989Z,-1.90
2019-04-14T02:32:00.026Z,-2.00
2019-04-14T02:37:08.416Z,-2.00
2019-04-14T02:42:20.917Z,-1.70
2019-04-14T02:44:38.425Z,-1.60
2019-04-14T02:49:34.938Z,-1.50
2019-04-14T02:52:04.690Z,-1.50
2019-04-14T02:54:43.634Z,-1.50
2019-04-14T02:57:12.581Z,-1.50
2019-04-14T02:59:36.253Z,-1.50
2019-04-14T03:04:25.775Z,-1.40
2019-04-14T03:07:05.393Z,-1.30
2019-04-14T03:09:42.352Z,-1.30
2019-04-14T03:12:16.753Z,-1.30
2019-04-14T03:14:45.503Z,-1.30
2019-04-14T03:17:26.988Z,-1.30
2019-04-14T03:22:33.090Z,-1.30
2019-04-14T03:25:00.486Z,-1.10
2019-04-14T03:27:50.174Z,-1.10
2019-04-14T03:30:51.253Z,-1.00
2019-04-14T03:36:01.398Z,-1.10
2019-04-14T03:37:50.786Z,-1.00
2019-04-14T03:40:28.445Z,-1.00
2019-04-14T03:43:03.965Z,-1.00
2019-04-14T03:45:36.255Z,-0.90
2019-04-14T03:48:16.839Z,-0.80
2019-04-14T03:50:21.138Z,-0.70
2019-04-14T03:52:55.754Z,-0.70
2019-04-14T03:55:17.359Z,-0.60
2019-04-14T03:57:31.690Z,-0.50
2019-04-14T04:00:00.736Z,-0.50
2019-04-14T04:02:29.479Z,-0.40
2019-04-14T04:04:58.041Z,-0.40
2019-04-14T04:07:27.811Z,-0.20
2019-04-14T04:09:58.363Z,-0.20
2019-04-14T04:12:27.185Z,-0.10
2019-04-14T04:14:55.891Z,0.00
2019-04-14T04:17:31.909Z,0.00
2019-04-14T04:20:02.553Z,0.10
2019-04-14T04:22:32.963Z,0.00
2019-04-14T04:25:09.491Z,-0.10
2019-04-14T04:27:42.555Z,-0.20
2019-04-14T04:30:27.982Z,-0.10
2019-04-14T04:32:58.186Z,-0.10
2019-04-14T04:35:32.452Z,0.00
2019-04-14T04:38:03.052Z,0.10
2019-04-14T04:40:33.218Z,0.20
2019-04-14T04:43:01.878Z,0.30
2019-04-14T04:45:30.466Z,0.30
2019-04-14T04:48:00.117Z,0.50
2019-04-14T04:50:28.914Z,0.50
2019-04-14T04:52:58.288Z,0.50
2019-04-14T04:55:26.861Z,0.50
2019-04-14T04:57:56.588Z,0.60
2019-04-14T05:00:26.425Z,0.50
2019-04-14T05:02:55.175Z,0.60
2019-04-14T05:06:00.440Z,0.50
2019-04-14T05:08:28.970Z,0.60
2019-04-14T05:10:59.207Z,0.70
2019-04-14T05:13:29.212Z,0.60
2019-04-14T05:15:57.814Z,0.50
2019-04-14T05:18:26.818Z,0.60
2019-04-14T05:20:55.535Z,0.60
2019-04-14T05:23:24.042Z,0.50
2019-04-14T05:25:53.764Z,0.50
2019-04-14T05:28:22.485Z,0.60
2019-04-14T05:30:51.066Z,0.60
2019-04-14T05:33:20.631Z,0.60
2019-04-14T05:35:49.316Z,0.60
2019-04-14T05:38:18.965Z,0.70
2019-04-14T05:40:47.749Z,0.80
2019-04-14T05:43:28.386Z,0.80
2019-04-14T05:45:46.561Z,0.90
2019-04-14T05:48:16.003Z,1.00
2019-04-14T05:50:44.630Z,0.90
2019-04-14T05:53:13.250Z,1.00
2019-04-14T05:55:41.954Z,0.90
2019-04-14T05:58:10.544Z,0.90
2019-04-14T06:00:42.052Z,1.00
2019-04-14T06:03:10.739Z,1.00
2019-04-14T06:05:40.333Z,1.00
2019-04-14T06:08:08.961Z,1.00
2019-04-14T06:10:37.550Z,1.00
2019-04-14T06:13:06.117Z,1.00
2019-04-14T06:15:35.282Z,1.00
2019-04-14T06:18:04.279Z,1.00
2019-04-14T06:20:33.489Z,1.00
2019-04-14T06:23:02.018Z,1.10
2019-04-14T06:25:30.605Z,1.10
2019-04-14T06:27:59.170Z,1.20
2019-04-14T06:30:32.387Z,1.20
2019-04-14T06:33:02.601Z,1.30
2019-04-14T06:35:32.813Z,1.20
2019-04-14T06:38:06.005Z,1.20
2019-04-14T06:40:36.306Z,1.20
2019-04-14T06:43:04.934Z,1.10
2019-04-14T06:45:33.514Z,1.20
2019-04-14T06:48:02.078Z,1.20
2019-04-14T06:50:30.660Z,1.30
2019-04-14T06:52:59.217Z,1.30
2019-04-14T06:55:27.777Z,1.40
2019-04-14T06:57:56.360Z,1.50
2019-04-14T07:00:24.990Z,1.50
2019-04-14T07:02:53.595Z,1.50
2019-04-14T07:05:22.217Z,1.40
2019-04-14T07:07:56.865Z,1.50
2019-04-14T07:10:20.998Z,1.70
2019-04-14T07:12:49.595Z,1.60
2019-04-14T07:15:18.215Z,1.60
2019-04-14T07:17:46.824Z,1.60
2019-04-14T07:20:15.398Z,1.60
2019-04-14T07:22:44.180Z,1.70
2019-04-14T07:25:12.744Z,1.70
2019-04-14T07:27:41.399Z,1.60
2019-04-14T07:30:20.694Z,1.60
2019-04-14T07:32:50.939Z,1.60
2019-04-14T07:35:37.622Z,1.70
2019-04-14T07:38:10.811Z,1.60
2019-04-14T07:40:41.041Z,1.70
2019-04-14T07:43:11.330Z,1.70
2019-04-14T07:45:53.155Z,1.70
2019-04-14T07:48:23.475Z,1.80
2019-04-14T07:51:02.668Z,1.80
2019-04-14T07:53:38.879Z,1.80
2019-04-14T07:56:09.082Z,1.80
2019-04-14T07:58:45.345Z,1.90
2019-04-14T08:01:15.690Z,2.00
2019-04-14T08:03:55.169Z,2.00
2019-04-14T08:06:23.875Z,2.10
2019-04-14T08:08:52.395Z,2.00
2019-04-14T08:11:20.982Z,2.10
2019-04-14T08:13:49.824Z,2.20
2019-04-14T08:16:18.360Z,2.30
2019-04-14T08:18:47.005Z,2.40
2019-04-14T08:21:15.630Z,2.60
2019-04-14T08:23:44.479Z,2.70
2019-04-14T08:26:13.403Z,2.70
2019-04-14T08:28:42.641Z,2.90
2019-04-14T08:31:11.496Z,3.10
2019-04-14T08:33:40.059Z,3.10
2019-04-14T08:36:08.864Z,3.10
2019-04-14T08:38:37.446Z,3.10
2019-04-14T08:41:06.012Z,3.10
2019-04-14T08:43:52.643Z,3.00
2019-04-14T08:46:22.986Z,3.00
2019-04-14T08:48:59.127Z,3.00
2019-04-14T08:51:35.467Z,3.00
2019-04-14T08:54:05.688Z,2.90
2019-04-14T08:56:52.249Z,2.90
2019-04-14T08:59:22.478Z,2.90
2019-04-14T09:01:58.651Z,3.00
2019-04-14T09:04:28.850Z,3.00
2019-04-14T09:07:07.962Z,3.00
2019-04-14T09:09:38.173Z,3.00
2019-04-14T09:12:15.688Z,2.90
2019-04-14T09:14:41.805Z,2.90
2019-04-14T09:17:11.418Z,2.90
2019-04-14T09:19:39.984Z,3.00
2019-04-14T09:22:08.565Z,3.10
2019-04-14T09:24:37.117Z,3.10
2019-04-14T09:27:05.723Z,3.10
2019-04-14T09:29:34.318Z,3.20
2019-04-14T09:32:04.850Z,3.20
2019-04-14T09:34:33.412Z,3.20
2019-04-14T09:37:02.483Z,3.20
2019-04-14T09:39:31.009Z,3.20
2019-04-14T09:42:00.034Z,3.30
2019-04-14T09:44:28.613Z,3.20
2019-04-14T09:46:57.177Z,3.20
2019-04-14T09:49:25.757Z,3.00
2019-04-14T09:51:54.311Z,2.90
2019-04-14T09:54:22.896Z,3.00
2019-04-14T09:56:51.482Z,3.00
2019-04-14T09:59:20.112Z,3.00
2019-04-14T10:01:48.747Z,3.00
2019-04-14T10:04:17.338Z,3.00
2019-04-14T10:06:45.919Z,2.90
2019-04-14T10:09:14.613Z,2.90
2019-04-14T10:11:48.909Z,3.00
2019-04-14T10:14:13.583Z,3.10
2019-04-14T10:16:42.244Z,3.10
2019-04-14T10:19:10.837Z,3.10
2019-04-14T10:21:39.393Z,3.10
2019-04-14T10:24:07.967Z,3.00
2019-04-14T10:26:36.559Z,2.90
2019-04-14T10:29:05.212Z,2.80
2019-04-14T10:31:33.800Z,2.80
2019-04-14T10:34:02.481Z,2.90
2019-04-14T10:36:31.025Z,3.00
2019-04-14T10:38:59.606Z,2.90
2019-04-14T10:41:28.161Z,2.90
2019-04-14T10:43:56.734Z,2.90
2019-04-14T10:46:25.287Z,2.90
2019-04-14T10:48:53.866Z,2.90
2019-04-14T10:51:29.943Z,2.80
2019-04-14T10:53:52.633Z,2.90
2019-04-14T10:56:21.245Z,2.80
2019-04-14T10:58:49.919Z,2.90
2019-04-14T11:01:18.883Z,3.00
2019-04-14T11:03:47.712Z,3.10
2019-04-14T11:06:30.113Z,3.10
2019-04-14T11:08:58.686Z,3.10
2019-04-14T11:11:27.250Z,2.90
2019-04-14T11:13:55.836Z,3.00
2019-04-14T11:16:24.690Z,2.90
2019-04-14T11:18:53.377Z,2.90
2019-04-14T11:21:22.220Z,2.90
2019-04-14T11:23:50.862Z,2.90
2019-04-14T11:26:19.586Z,3.00
2019-04-14T11:28:48.330Z,2.90
2019-04-14T11:31:18.670Z,3.00
2019-04-14T11:34:00.236Z,3.40
2019-04-14T11:36:47.381Z,3.30
2019-04-14T11:39:17.830Z,3.40
2019-04-14T11:41:46.553Z,3.50
2019-04-14T11:44:15.518Z,3.50
2019-04-14T11:46:44.229Z,3.40
2019-04-14T11:49:15.854Z,3.30
2019-04-14T11:51:55.067Z,3.70
2019-04-14T11:54:17.274Z,3.60
2019-04-14T11:56:45.990Z,3.60
2019-04-14T11:59:15.400Z,3.70
2019-04-14T12:01:48.271Z,3.60
2019-04-14T12:04:21.953Z,3.50
2019-04-14T12:06:58.489Z,3.40
2019-04-14T12:09:29.558Z,3.40
2019-04-14T12:11:58.229Z,3.60
2019-04-14T12:14:26.831Z,3.50
2019-04-14T12:16:55.541Z,3.70
2019-04-14T12:19:24.203Z,3.60
2019-04-14T12:21:53.095Z,3.60
2019-04-14T12:24:21.798Z,3.60
2019-04-14T12:26:50.466Z,3.60
2019-04-14T12:29:19.178Z,3.50
2019-04-14T12:31:49.076Z,3.50
2019-04-14T12:34:27.479Z,3.50
2019-04-14T12:36:56.089Z,3.50
2019-04-14T12:39:24.927Z,3.60
2019-04-14T12:42:12.540Z,3.60
2019-04-14T12:44:52.510Z,3.80
2019-04-14T12:47:25.688Z,3.80
2019-04-14T12:49:58.329Z,3.90
2019-04-14T12:52:29.930Z,3.90
2019-04-14T12:54:59.445Z,3.80
2019-04-14T12:57:35.826Z,3.80
2019-04-14T13:00:07.222Z,3.70
2019-04-14T13:02:37.419Z,3.80
2019-04-14T13:05:06.484Z,3.90
2019-04-14T13:07:36.871Z,3.90
2019-04-14T13:10:07.067Z,4.00
2019-04-14T13:12:35.653Z,3.90
2019-04-14T13:15:06.358Z,4.00
2019-04-14T13:17:34.934Z,4.00
2019-04-14T13:20:05.430Z,4.20
2019-04-14T13:22:34.532Z,4.20
2019-04-14T13:25:03.210Z,4.30
2019-04-14T13:27:31.789Z,4.30
2019-04-14T13:30:00.355Z,4.20
2019-04-14T13:32:35.757Z,4.10
2019-04-14T13:34:59.126Z,4.20
2019-04-14T13:37:27.755Z,4.10
2019-04-14T13:40:01.081Z,3.90
2019-04-14T13:42:29.645Z,3.70
2019-04-14T13:44:58.202Z,3.70
2019-04-14T13:47:26.929Z,3.70
2019-04-14T13:49:56.737Z,3.70
2019-04-14T13:52:25.438Z,3.70
2019-04-14T13:54:55.042Z,3.60
2019-04-14T13:57:23.670Z,3.60
2019-04-14T13:59:52.368Z,3.50
2019-04-14T14:02:20.984Z,3.30
2019-04-14T14:04:49.616Z,3.30
2019-04-14T14:07:18.809Z,3.30
2019-04-14T14:09:47.681Z,3.40
2019-04-14T14:12:26.730Z,3.30
2019-04-14T14:15:12.500Z,3.30
2019-04-14T14:17:43.856Z,3.30
2019-04-14T14:20:21.420Z,3.30
2019-04-14T14:22:59.549Z,3.30
2019-04-14T14:25:35.231Z,3.40
2019-04-14T14:28:03.884Z,3.50
2019-04-14T14:30:32.456Z,3.40
2019-04-14T14:33:01.031Z,3.40
2019-04-14T14:35:29.590Z,3.50
2019-04-14T14:37:58.307Z,3.50
2019-04-14T14:40:26.835Z,3.40
2019-04-14T14:42:55.679Z,3.40
2019-04-14T14:45:28.444Z,3.40
2019-04-14T14:48:07.542Z,3.40
2019-04-14T14:50:41.142Z,3.40
2019-04-14T14:53:12.194Z,3.40
2019-04-14T14:55:40.477Z,3.50
2019-04-14T14:58:08.990Z,3.60
2019-04-14T15:00:37.555Z,3.60
2019-04-14T15:03:06.606Z,3.50
2019-04-14T15:05:35.173Z,3.50
2019-04-14T15:08:03.763Z,3.50
2019-04-14T15:10:32.349Z,3.50
2019-04-14T15:13:00.934Z,3.50
2019-04-14T15:15:29.502Z,3.60
2019-04-14T15:17:58.574Z,3.60
2019-04-14T15:20:27.148Z,3.50
2019-04-14T15:22:55.771Z,3.50
2019-04-14T15:25:24.393Z,3.50
2019-04-14T15:27:53.030Z,3.40
2019-04-14T15:30:23.067Z,3.40
2019-04-14T15:32:51.742Z,3.50
2019-04-14T15:35:20.362Z,3.40
2019-04-14T15:37:49.078Z,3.50
2019-04-14T15:40:18.297Z,3.50
2019-04-14T15:42:46.970Z,3.50
2019-04-14T15:45:15.907Z,3.40
2019-04-14T15:47:45.608Z,3.40
2019-04-14T15:50:14.935Z,3.40
2019-04-14T15:52:44.145Z,3.50
2019-04-14T15:55:15.864Z,3.50
2019-04-14T15:57:46.331Z,3.60
2019-04-14T16:00:26.105Z,3.60
2019-04-14T16:02:56.382Z,3.60
2019-04-14T16:05:29.606Z,3.60
2019-04-14T16:07:59.802Z,3.60
2019-04-14T16:10:46.738Z,3.60
2019-04-14T16:13:19.604Z,3.70
2019-04-14T16:15:52.574Z,3.60
2019-04-14T16:18:25.519Z,3.60
2019-04-14T16:20:54.115Z,3.60
2019-04-14T16:23:22.734Z,3.60
2019-04-14T16:25:53.006Z,3.60
2019-04-14T16:28:41.639Z,3.60
2019-04-14T16:31:28.062Z,3.60
2019-04-14T16:34:16.239Z,3.70
2019-04-14T16:36:46.591Z,3.60
2019-04-14T16:39:17.205Z,3.60
2019-04-14T16:41:46.053Z,3.70
2019-04-14T16:44:15.282Z,3.70
2019-04-14T16:46:44.213Z,3.80
2019-04-14T16:49:14.584Z,3.80
2019-04-14T16:51:47.883Z,3.80
2019-04-14T16:54:21.097Z,3.80
2019-04-14T16:56:51.347Z,3.80
2019-04-14T16:59:20.066Z,3.80
2019-04-14T17:01:52.981Z,3.80
2019-04-14T17:04:21.670Z,3.90
2019-04-14T17:06:50.324Z,3.90
2019-04-14T17:09:18.938Z,3.90
2019-04-14T17:11:47.565Z,4.00
2019-04-14T17:14:17.900Z,4.00
2019-04-14T17:16:53.881Z,3.90
2019-04-14T17:19:24.085Z,3.90
2019-04-14T17:22:00.105Z,3.90
2019-04-14T17:24:32.825Z,3.80
2019-04-14T17:27:03.046Z,3.80
2019-04-14T17:29:49.790Z,3.90
2019-04-14T17:32:20.039Z,3.90
2019-04-14T17:34:52.938Z,3.90
2019-04-14T17:37:25.641Z,3.90
2019-04-14T17:39:55.842Z,3.90
2019-04-14T17:42:34.859Z,3.90
2019-04-14T17:45:06.167Z,3.80
2019-04-14T17:47:48.512Z,3.80
2019-04-14T17:50:24.519Z,3.80
2019-04-14T17:52:57.172Z,3.80
2019-04-14T17:55:49.399Z,3.80
2019-04-14T17:58:14.325Z,3.90
2019-04-14T18:01:01.035Z,3.90
2019-04-14T18:03:37.501Z,3.90
2019-04-14T18:06:16.943Z,3.90
2019-04-14T18:09:03.433Z,3.90
2019-04-14T18:11:42.387Z,3.80
2019-04-14T18:14:18.846Z,3.80
2019-04-14T18:17:04.101Z,3.90
2019-04-14T18:19:49.464Z,3.90
2019-04-14T18:22:18.271Z,3.90
2019-04-14T18:24:47.378Z,3.80
2019-04-14T18:27:16.275Z,3.90
2019-04-14T18:29:59.030Z,3.90
2019-04-14T18:32:31.745Z,3.80
2019-04-14T18:35:01.951Z,3.80
2019-04-14T18:37:32.178Z,3.90
2019-04-14T18:40:11.387Z,3.80
2019-04-14T18:42:57.857Z,3.90
2019-04-14T18:45:28.062Z,3.90
2019-04-14T18:47:58.290Z,3.90
2019-04-14T18:50:45.073Z,3.90
2019-04-14T18:53:18.712Z,3.80
2019-04-14T18:55:54.863Z,3.80
2019-04-14T18:58:43.199Z,3.90
2019-04-14T19:01:22.317Z,3.90
2019-04-14T19:03:51.045Z,3.90
2019-04-14T19:06:19.663Z,3.90
2019-04-14T19:08:49.214Z,3.90
2019-04-14T19:11:25.211Z,3.90
2019-04-14T19:13:55.501Z,4.00
2019-04-14T19:16:39.555Z,4.00
2019-04-14T19:19:05.428Z,3.90
2019-04-14T19:21:34.049Z,3.90
2019-04-14T19:24:02.578Z,3.90
2019-04-14T19:26:31.155Z,3.90
2019-04-14T19:28:59.725Z,3.90
2019-04-14T19:31:28.286Z,3.90
2019-04-14T19:33:56.874Z,3.90
2019-04-14T19:36:25.438Z,3.90
2019-04-14T19:38:54.026Z,3.90
2019-04-14T19:41:22.611Z,3.90
2019-04-14T19:43:51.233Z,3.80
2019-04-14T19:46:20.121Z,3.80
2019-04-14T19:48:48.878Z,3.80
2019-04-14T19:51:17.468Z,3.90
2019-04-14T19:53:46.420Z,3.90
2019-04-14T19:56:15.213Z,3.80
2019-04-14T19:58:43.841Z,3.80
2019-04-14T20:01:12.418Z,3.80
2019-04-14T20:03:41.118Z,3.80
2019-04-14T20:06:09.701Z,3.80
2019-04-14T20:08:38.282Z,3.80
2019-04-14T20:11:06.853Z,3.80
2019-04-14T20:13:37.085Z,3.80
2019-04-14T20:16:10.079Z,3.90
2019-04-14T20:18:44.544Z,3.90
2019-04-14T20:21:23.822Z,3.90
2019-04-14T20:24:09.309Z,3.90
2019-04-14T20:26:48.661Z,4.00
2019-04-14T20:29:21.627Z,3.90
2019-04-14T20:31:51.974Z,3.90
2019-04-14T20:34:20.566Z,3.90
2019-04-14T20:36:49.235Z,3.90
2019-04-14T20:39:19.105Z,4.00
2019-04-14T20:41:47.700Z,3.90
2019-04-14T20:44:16.446Z,3.90
2019-04-14T20:46:45.269Z,4.00
2019-04-14T20:49:14.481Z,4.00
2019-04-14T20:51:43.135Z,4.00
2019-04-14T20:54:11.740Z,4.00
2019-04-14T20:56:40.293Z,3.90
2019-04-14T20:59:08.875Z,3.90
2019-04-14T21:01:39.078Z,4.00
2019-04-14T21:04:25.696Z,3.90
2019-04-14T21:07:12.471Z,3.90
2019-04-14T21:09:54.866Z,3.90
2019-04-14T21:12:41.325Z,3.80
2019-04-14T21:15:14.647Z,3.80
2019-04-14T21:17:44.899Z,3.80
2019-04-14T21:20:17.801Z,3.90
2019-04-14T21:22:57.039Z,3.80
2019-04-14T21:25:39.478Z,3.80
2019-04-14T21:28:12.749Z,3.90
2019-04-14T21:30:42.978Z,3.90
2019-04-14T21:33:13.186Z,3.90
2019-04-14T21:35:52.419Z,3.90
2019-04-14T21:38:22.641Z,3.80
2019-04-14T21:41:02.029Z,3.80
2019-04-14T21:43:30.573Z,3.90
2019-04-14T21:45:59.166Z,4.00
2019-04-14T21:48:27.738Z,3.90
2019-04-14T21:50:56.336Z,3.90
2019-04-14T21:53:24.897Z,3.90
2019-04-14T21:55:53.507Z,3.90
2019-04-14T21:58:26.394Z,3.90
2019-04-14T22:01:36.715Z,3.90
2019-04-14T22:04:13.373Z,3.90
2019-04-14T22:06:43.661Z,3.90
2019-04-14T22:09:19.405Z,3.90
2019-04-14T22:11:48.161Z,3.90
2019-04-14T22:14:16.726Z,3.90
2019-04-14T22:16:45.315Z,3.90
2019-04-14T22:19:13.878Z,4.00
2019-04-14T22:21:42.466Z,3.90
2019-04-14T22:24:11.029Z,3.90
2019-04-14T22:26:39.681Z,4.00
2019-04-14T22:29:08.251Z,3.90
2019-04-14T22:31:36.834Z,4.00
2019-04-14T22:34:05.570Z,4.00
2019-04-14T22:36:34.197Z,4.10
2019-04-14T22:39:04.374Z,3.90
2019-04-14T22:41:32.958Z,3.90
2019-04-14T22:44:01.529Z,3.90
2019-04-14T22:46:30.129Z,3.90
2019-04-14T22:48:58.711Z,4.00
2019-04-14T22:51:27.307Z,4.00
2019-04-14T22:53:56.921Z,4.00
2019-04-14T22:56:38.343Z,3.90
2019-04-14T22:58:55.843Z,3.90
2019-04-14T23:01:26.159Z,3.90
2019-04-14T23:04:05.440Z,3.90
2019-04-14T23:06:35.738Z,3.90
2019-04-14T23:09:10.215Z,4.00
2019-04-14T23:11:40.430Z,4.00
2019-04-14T23:14:27.512Z,4.00
2019-04-14T23:17:12.451Z,4.00
2019-04-14T23:19:42.760Z,4.00
2019-04-14T23:22:29.474Z,3.90
2019-04-14T23:24:58.041Z,3.90
2019-04-14T23:27:26.814Z,3.90
2019-04-14T23:29:55.389Z,3.90
2019-04-14T23:32:24.370Z,3.90
2019-04-14T23:34:54.410Z,3.90
2019-04-14T23:37:23.357Z,4.00
2019-04-14T23:39:52.051Z,3.90
2019-04-14T23:42:20.633Z,4.00
2019-04-14T23:44:49.197Z,4.00
2019-04-14T23:47:17.803Z,3.90
2019-04-14T23:49:46.393Z,4.00
2019-04-14T23:52:15.190Z,4.00
2019-04-14T23:54:43.771Z,4.00
2019-04-14T23:57:13.553Z,4.00
2019-04-14T23:59:42.123Z,4.00
